createdAt,value
2023-05-24T00:00:43.970Z,10.98
2023-05-24T00:01:43.791Z,10.93
2023-05-24T00:02:43.844Z,10.91
2023-05-24T00:03:44.077Z,10.90
2023-05-24T00:04:43.733Z,10.90
2023-05-24T00:05:43.744Z,10.88
2023-05-24T00:06:43.730Z,10.87
2023-05-24T00:07:43.725Z,10.84
2023-05-24T00:08:43.665Z,10.83
2023-05-24T00:09:43.744Z,10.81
2023-05-24T00:10:43.889Z,10.76
2023-05-24T00:11:43.657Z,10.75
2023-05-24T00:12:43.655Z,10.73
2023-05-24T00:13:43.620Z,10.73
2023-05-24T00:14:43.629Z,10.68
2023-05-24T00:15:43.636Z,10.66
2023-05-24T00:16:43.604Z,10.65
2023-05-24T00:17:43.632Z,10.62
2023-05-24T00:18:43.567Z,10.63
2023-05-24T00:19:43.628Z,10.62
2023-05-24T00:20:43.873Z,10.60
2023-05-24T00:21:43.510Z,10.60
2023-05-24T00:22:43.513Z,10.62
2023-05-24T00:23:43.527Z,10.58
2023-05-24T00:24:43.450Z,10.58
2023-05-24T00:25:43.438Z,10.58
2023-05-24T00:26:43.453Z,10.63
2023-05-24T00:27:43.456Z,10.60
2023-05-24T00:28:43.449Z,10.57
2023-05-24T00:29:43.424Z,10.57
2023-05-24T00:30:43.553Z,10.57
2023-05-24T00:31:43.453Z,10.57
2023-05-24T00:32:43.406Z,10.57
2023-05-24T00:33:43.359Z,10.63
2023-05-24T00:34:43.363Z,10.63
2023-05-24T00:35:43.335Z,10.65
2023-05-24T00:36:43.318Z,10.65
2023-05-24T00:37:51.341Z,10.63
2023-05-24T00:38:43.322Z,10.62
2023-05-24T00:39:43.322Z,10.63
2023-05-24T00:40:43.491Z,10.58
2023-05-24T00:41:43.278Z,10.54
2023-05-24T00:42:43.241Z,10.54
2023-05-24T00:43:43.268Z,10.47
2023-05-24T00:44:43.220Z,10.46
2023-05-24T00:45:43.366Z,10.44
2023-05-24T00:46:43.184Z,10.43
2023-05-24T00:47:43.210Z,10.42
2023-05-24T00:48:43.200Z,10.39
2023-05-24T00:49:43.193Z,10.39
2023-05-24T00:50:43.457Z,10.36
2023-05-24T00:51:43.153Z,10.35
2023-05-24T00:52:43.170Z,10.29
2023-05-24T00:53:43.118Z,10.28
2023-05-24T00:54:43.137Z,10.29
2023-05-24T00:55:43.067Z,10.28
2023-05-24T00:56:43.056Z,10.28
2023-05-24T00:57:43.060Z,10.26
2023-05-24T00:58:43.081Z,10.26
2023-05-24T00:59:43.080Z,10.26
2023-05-24T01:00:43.248Z,10.26
2023-05-24T01:01:43.113Z,10.25
2023-05-24T01:02:43.132Z,10.25
2023-05-24T01:03:43.032Z,10.28
2023-05-24T01:04:43.022Z,10.26
2023-05-24T01:05:42.999Z,10.22
2023-05-24T01:06:42.907Z,10.22
2023-05-24T01:07:42.933Z,10.18
2023-05-24T01:08:42.926Z,10.16
2023-05-24T01:09:42.964Z,10.14
2023-05-24T01:10:43.166Z,10.14
2023-05-24T01:11:42.867Z,10.14
2023-05-24T01:12:42.887Z,10.16
2023-05-24T01:13:42.835Z,10.17
2023-05-24T01:14:42.939Z,10.13
2023-05-24T01:15:42.954Z,10.13
2023-05-24T01:16:42.807Z,10.09
2023-05-24T01:17:42.850Z,10.09
2023-05-24T01:18:42.792Z,10.04
2023-05-24T01:19:42.758Z,9.99
2023-05-24T01:20:43.122Z,9.98
2023-05-24T01:21:42.731Z,9.99
2023-05-24T01:22:42.763Z,9.98
2023-05-24T01:23:42.714Z,9.99
2023-05-24T01:24:42.728Z,9.96
2023-05-24T01:25:42.678Z,9.93
2023-05-24T01:26:42.692Z,9.92
2023-05-24T01:27:42.656Z,9.88
2023-05-24T01:28:42.653Z,9.88
2023-05-24T01:29:42.695Z,9.85
2023-05-24T01:30:42.891Z,9.83
2023-05-24T01:31:42.691Z,9.83
2023-05-24T01:32:42.682Z,9.83
2023-05-24T01:33:42.599Z,9.81
2023-05-24T01:34:42.606Z,9.80
2023-05-24T01:35:42.589Z,9.81
2023-05-24T01:36:42.555Z,9.81
2023-05-24T01:37:42.506Z,9.83
2023-05-24T01:38:42.568Z,9.83
2023-05-24T01:39:42.524Z,9.85
2023-05-24T01:40:42.756Z,9.83
2023-05-24T01:41:42.434Z,9.81
2023-05-24T01:42:42.458Z,9.83
2023-05-24T01:43:42.456Z,9.83
2023-05-24T01:44:42.457Z,9.83
2023-05-24T01:45:42.391Z,9.80
2023-05-24T01:46:42.473Z,9.78
2023-05-24T01:47:42.455Z,9.77
2023-05-24T01:48:42.426Z,9.74
2023-05-24T01:49:42.364Z,9.74
2023-05-24T01:50:42.498Z,9.74
2023-05-24T01:51:42.417Z,9.74
2023-05-24T01:52:42.336Z,9.70
2023-05-24T01:53:42.272Z,9.71
2023-05-24T01:54:42.277Z,9.68
2023-05-24T01:55:42.302Z,9.65
2023-05-24T01:56:42.301Z,9.62
2023-05-24T01:57:42.259Z,9.60
2023-05-24T01:58:42.227Z,9.60
2023-05-24T01:59:42.247Z,9.60
2023-05-24T02:00:42.449Z,9.59
2023-05-24T02:01:42.236Z,9.58
2023-05-24T02:02:42.286Z,9.56
2023-05-24T02:03:42.161Z,9.55
2023-05-24T02:04:42.200Z,9.52
2023-05-24T02:05:42.144Z,9.50
2023-05-24T02:06:42.149Z,9.50
2023-05-24T02:07:42.114Z,9.50
2023-05-24T02:08:42.133Z,9.49
2023-05-24T02:09:42.157Z,9.52
2023-05-24T02:10:42.266Z,9.50
2023-05-24T02:11:42.078Z,9.49
2023-05-24T02:12:42.111Z,9.50
2023-05-24T02:13:42.027Z,9.50
2023-05-24T02:14:42.064Z,9.45
2023-05-24T02:15:42.140Z,9.48
2023-05-24T02:16:42.069Z,9.45
2023-05-24T02:17:42.013Z,9.44
2023-05-24T02:18:41.991Z,9.45
2023-05-24T02:19:41.978Z,9.42
2023-05-24T02:20:42.231Z,9.44
2023-05-24T02:21:41.936Z,9.42
2023-05-24T02:22:41.966Z,9.40
2023-05-24T02:23:41.966Z,9.35
2023-05-24T02:24:41.889Z,9.37
2023-05-24T02:25:41.929Z,9.38
2023-05-24T02:26:41.929Z,9.41
2023-05-24T02:27:41.827Z,9.44
2023-05-24T02:28:41.921Z,9.44
2023-05-24T02:29:41.871Z,9.44
2023-05-24T02:30:41.995Z,9.42
2023-05-24T02:31:41.842Z,9.42
2023-05-24T02:32:41.891Z,9.41
2023-05-24T02:33:41.811Z,9.38
2023-05-24T02:34:41.814Z,9.35
2023-05-24T02:35:41.791Z,9.34
2023-05-24T02:36:41.749Z,9.32
2023-05-24T02:37:41.734Z,9.32
2023-05-24T02:38:41.720Z,9.31
2023-05-24T02:39:41.736Z,9.30
2023-05-24T02:40:41.841Z,9.31
2023-05-24T02:41:41.708Z,9.31
2023-05-24T02:42:41.663Z,9.27
2023-05-24T02:43:41.634Z,9.26
2023-05-24T02:44:41.660Z,9.27
2023-05-24T02:45:41.631Z,9.26
2023-05-24T02:46:41.711Z,9.24
2023-05-24T02:47:41.636Z,9.23
2023-05-24T02:48:41.631Z,9.22
2023-05-24T02:49:41.566Z,9.23
2023-05-24T02:50:41.830Z,9.23
2023-05-24T02:51:41.539Z,9.22
2023-05-24T02:52:41.564Z,9.22
2023-05-24T02:53:41.529Z,9.22
2023-05-24T02:54:41.514Z,9.19
2023-05-24T02:55:41.474Z,9.19
2023-05-24T02:56:41.572Z,9.19
2023-05-24T02:57:41.463Z,9.16
2023-05-24T02:58:41.464Z,9.16
2023-05-24T02:59:41.464Z,9.16
2023-05-24T03:00:41.593Z,9.15
2023-05-24T03:01:41.530Z,9.15
2023-05-24T03:02:41.689Z,9.15
2023-05-24T03:03:41.641Z,9.15
2023-05-24T03:04:41.401Z,9.16
2023-05-24T03:05:41.362Z,9.16
2023-05-24T03:06:41.416Z,9.12
2023-05-24T03:07:41.319Z,9.12
2023-05-24T03:08:41.319Z,9.12
2023-05-24T03:09:41.310Z,9.08
2023-05-24T03:10:41.504Z,9.04
2023-05-24T03:11:41.315Z,9.08
2023-05-24T03:12:41.273Z,9.12
2023-05-24T03:13:41.262Z,9.12
2023-05-24T03:14:41.270Z,9.12
2023-05-24T03:15:41.236Z,9.12
2023-05-24T03:16:41.249Z,9.08
2023-05-24T03:17:41.297Z,9.10
2023-05-24T03:18:41.173Z,9.06
2023-05-24T03:19:41.192Z,9.06
2023-05-24T03:20:41.556Z,9.06
2023-05-24T03:21:41.155Z,9.06
2023-05-24T03:22:41.147Z,9.04
2023-05-24T03:23:41.141Z,9.01
2023-05-24T03:24:41.166Z,9.00
2023-05-24T03:25:41.100Z,9.00
2023-05-24T03:26:41.109Z,8.96
2023-05-24T03:27:41.050Z,8.97
2023-05-24T03:28:41.113Z,8.97
2023-05-24T03:29:41.055Z,8.94
2023-05-24T03:30:41.196Z,8.94
2023-05-24T03:31:41.110Z,8.96
2023-05-24T03:32:41.067Z,8.93
2023-05-24T03:33:41.042Z,8.93
2023-05-24T03:34:40.987Z,8.93
2023-05-24T03:35:40.999Z,8.94
2023-05-24T03:36:41.006Z,8.91
2023-05-24T03:37:40.953Z,8.88
2023-05-24T03:38:40.982Z,8.86
2023-05-24T03:39:40.920Z,8.85
2023-05-24T03:40:41.130Z,8.83
2023-05-24T03:41:40.897Z,8.83
2023-05-24T03:42:40.907Z,8.83
2023-05-24T03:43:40.908Z,8.83
2023-05-24T03:44:40.867Z,8.80
2023-05-24T03:45:41.006Z,8.82
2023-05-24T03:46:41.001Z,8.82
2023-05-24T03:47:40.895Z,8.82
2023-05-24T03:48:40.819Z,8.82
2023-05-24T03:49:40.790Z,8.83
2023-05-24T03:50:41.080Z,8.82
2023-05-24T03:51:40.768Z,8.80
2023-05-24T03:52:40.768Z,8.80
2023-05-24T03:53:40.699Z,8.79
2023-05-24T03:54:40.723Z,8.79
2023-05-24T03:55:40.684Z,8.80
2023-05-24T03:56:40.758Z,8.79
2023-05-24T03:57:40.680Z,8.80
2023-05-24T03:58:40.700Z,8.76
2023-05-24T03:59:41.409Z,8.76
2023-05-24T04:00:40.843Z,8.78
2023-05-24T04:01:40.649Z,8.82
2023-05-24T04:02:40.744Z,8.83
2023-05-24T04:03:40.709Z,8.80
2023-05-24T04:04:40.601Z,8.75
2023-05-24T04:05:40.584Z,8.70
2023-05-24T04:06:40.634Z,8.70
2023-05-24T04:07:40.564Z,8.67
2023-05-24T04:08:40.554Z,8.71
2023-05-24T04:09:40.501Z,8.70
2023-05-24T04:10:40.757Z,8.67
2023-05-24T04:11:40.545Z,8.64
2023-05-24T04:12:40.512Z,8.65
2023-05-24T04:13:40.525Z,8.67
2023-05-24T04:14:40.469Z,8.70
2023-05-24T04:15:40.446Z,8.71
2023-05-24T04:16:40.493Z,8.76
2023-05-24T04:17:40.555Z,8.75
2023-05-24T04:18:40.561Z,8.75
2023-05-24T04:19:40.408Z,8.78
2023-05-24T04:20:40.443Z,8.76
2023-05-24T04:21:40.359Z,8.78
2023-05-24T04:22:40.356Z,8.80
2023-05-24T04:23:40.302Z,8.82
2023-05-24T04:24:40.393Z,8.85
2023-05-24T04:25:40.310Z,8.86
2023-05-24T04:26:40.369Z,8.86
2023-05-24T04:27:40.302Z,8.89
2023-05-24T04:28:40.258Z,8.91
2023-05-24T04:29:40.275Z,8.94
2023-05-24T04:30:40.435Z,8.98
2023-05-24T04:31:40.303Z,9.01
2023-05-24T04:32:40.291Z,9.01
2023-05-24T04:33:40.220Z,9.03
2023-05-24T04:34:40.183Z,9.04
2023-05-24T04:35:40.191Z,9.08
2023-05-24T04:36:40.288Z,9.08
2023-05-24T04:37:40.126Z,9.10
2023-05-24T04:38:40.152Z,9.10
2023-05-24T04:39:40.145Z,9.12
2023-05-24T04:40:40.342Z,9.13
2023-05-24T04:41:40.131Z,9.16
2023-05-24T04:42:40.076Z,9.16
2023-05-24T04:43:40.073Z,9.19
2023-05-24T04:44:40.133Z,9.19
2023-05-24T04:45:40.063Z,9.19
2023-05-24T04:46:40.095Z,9.20
2023-05-24T04:47:40.107Z,9.20
2023-05-24T04:48:40.040Z,9.23
2023-05-24T04:49:40.013Z,9.22
2023-05-24T04:50:40.138Z,9.22
2023-05-24T04:51:39.985Z,9.26
2023-05-24T04:52:40.036Z,9.24
2023-05-24T04:53:39.981Z,9.26
2023-05-24T04:54:39.956Z,9.26
2023-05-24T04:55:39.930Z,9.31
2023-05-24T04:56:39.895Z,9.32
2023-05-24T04:57:39.874Z,9.35
2023-05-24T04:58:39.969Z,9.38
2023-05-24T04:59:39.860Z,9.40
2023-05-24T05:00:39.994Z,9.40
2023-05-24T05:01:39.951Z,9.42
2023-05-24T05:02:39.957Z,9.45
2023-05-24T05:03:39.911Z,9.50
2023-05-24T05:04:39.837Z,9.53
2023-05-24T05:05:39.789Z,9.56
2023-05-24T05:06:39.801Z,9.58
2023-05-24T05:07:39.769Z,9.59
2023-05-24T05:08:39.787Z,9.60
2023-05-24T05:09:39.755Z,9.62
2023-05-24T05:10:39.725Z,9.63
2023-05-24T05:11:39.808Z,9.67
2023-05-24T05:12:39.693Z,9.68
2023-05-24T05:13:39.728Z,9.68
2023-05-24T05:14:39.712Z,9.71
2023-05-24T05:15:41.595Z,9.71
2023-05-24T05:16:39.753Z,9.70
2023-05-24T05:17:39.712Z,9.70
2023-05-24T05:18:39.668Z,9.71
2023-05-24T05:19:39.601Z,9.71
2023-05-24T05:20:39.796Z,9.74
2023-05-24T05:21:39.623Z,9.75
2023-05-24T05:22:39.583Z,9.75
2023-05-24T05:23:39.587Z,9.77
2023-05-24T05:24:39.525Z,9.77
2023-05-24T05:25:39.530Z,9.80
2023-05-24T05:26:39.536Z,9.78
2023-05-24T05:27:39.529Z,9.80
2023-05-24T05:28:39.504Z,9.81
2023-05-24T05:29:39.503Z,9.85
2023-05-24T05:30:39.469Z,9.86
2023-05-24T05:31:39.581Z,9.88
2023-05-24T05:32:39.525Z,9.91
2023-05-24T05:33:39.539Z,9.89
2023-05-24T05:34:39.414Z,9.89
2023-05-24T05:35:39.422Z,9.93
2023-05-24T05:36:39.440Z,9.96
2023-05-24T05:37:39.369Z,9.96
2023-05-24T05:38:39.361Z,9.98
2023-05-24T05:39:39.391Z,9.99
2023-05-24T05:40:39.394Z,9.99
2023-05-24T05:41:39.325Z,10.01
2023-05-24T05:42:39.364Z,9.99
2023-05-24T05:43:39.330Z,9.99
2023-05-24T05:44:39.333Z,10.02
2023-05-24T05:45:39.333Z,10.06
2023-05-24T05:46:39.363Z,10.10
2023-05-24T05:47:39.298Z,10.10
2023-05-24T05:48:39.211Z,10.14
2023-05-24T05:49:39.217Z,10.11
2023-05-24T05:50:39.232Z,10.13
2023-05-24T05:51:39.204Z,10.17
2023-05-24T05:52:39.192Z,10.22
2023-05-24T05:53:39.203Z,10.24
2023-05-24T05:54:39.156Z,10.29
2023-05-24T05:55:39.160Z,10.31
2023-05-24T05:56:39.096Z,10.32
2023-05-24T05:57:39.179Z,10.34
2023-05-24T05:58:39.141Z,10.36
2023-05-24T05:59:39.118Z,10.39
2023-05-24T06:00:39.049Z,10.42
2023-05-24T06:01:39.095Z,10.39
2023-05-24T06:02:39.123Z,10.35
2023-05-24T06:03:39.333Z,10.32
2023-05-24T06:04:39.218Z,10.35
2023-05-24T06:05:39.012Z,10.42
2023-05-24T06:06:38.992Z,10.46
2023-05-24T06:07:39.059Z,10.47
2023-05-24T06:08:39.007Z,10.49
2023-05-24T06:09:39.022Z,10.58
2023-05-24T06:10:38.998Z,10.63
2023-05-24T06:11:38.970Z,10.63
2023-05-24T06:12:38.913Z,10.66
2023-05-24T06:13:38.916Z,10.69
2023-05-24T06:14:38.886Z,10.69
2023-05-24T06:15:38.996Z,10.70
2023-05-24T06:16:38.950Z,10.69
2023-05-24T06:17:38.847Z,10.66
2023-05-24T06:18:39.164Z,10.63
2023-05-24T06:19:38.830Z,10.66
2023-05-24T06:20:38.942Z,10.73
2023-05-24T06:21:38.800Z,10.84
2023-05-24T06:22:38.779Z,10.93
2023-05-24T06:23:38.774Z,11.02
2023-05-24T06:24:38.790Z,11.05
2023-05-24T06:25:38.776Z,11.08
2023-05-24T06:26:38.754Z,11.13
2023-05-24T06:27:38.813Z,11.17
2023-05-24T06:28:38.753Z,11.24
2023-05-24T06:29:38.707Z,11.26
2023-05-24T06:30:38.852Z,11.24
2023-05-24T06:31:38.751Z,11.21
2023-05-24T06:32:38.980Z,11.23
2023-05-24T06:33:39.846Z,11.21
2023-05-24T06:34:38.716Z,11.20
2023-05-24T06:35:38.685Z,11.26
2023-05-24T06:36:38.623Z,11.30
2023-05-24T06:37:38.746Z,11.31
2023-05-24T06:38:46.517Z,11.31
2023-05-24T06:39:38.547Z,11.38
2023-05-24T06:40:38.572Z,11.42
2023-05-24T06:41:40.355Z,11.39
2023-05-24T06:42:38.566Z,11.39
2023-05-24T06:43:38.541Z,11.36
2023-05-24T06:44:38.475Z,11.35
2023-05-24T06:45:38.465Z,11.36
2023-05-24T06:46:38.514Z,11.38
2023-05-24T06:47:38.572Z,11.42
2023-05-24T06:48:38.592Z,11.46
2023-05-24T06:49:38.443Z,11.45
2023-05-24T06:50:40.242Z,11.51
2023-05-24T06:51:38.448Z,11.54
2023-05-24T06:52:38.461Z,11.59
2023-05-24T06:53:38.388Z,11.63
2023-05-24T06:54:38.371Z,11.66
2023-05-24T06:55:38.351Z,11.67
2023-05-24T06:56:38.365Z,11.70
2023-05-24T06:57:38.387Z,11.64
2023-05-24T06:58:38.312Z,11.64
2023-05-24T06:59:38.315Z,11.67
2023-05-24T07:00:38.282Z,11.69
2023-05-24T07:01:38.314Z,11.72
2023-05-24T07:02:38.294Z,11.77
2023-05-24T07:03:38.244Z,11.81
2023-05-24T07:04:38.288Z,11.84
2023-05-24T07:05:38.268Z,11.90
2023-05-24T07:06:38.232Z,11.96
2023-05-24T07:07:38.206Z,12.01
2023-05-24T07:08:38.153Z,12.08
2023-05-24T07:09:38.152Z,12.11
2023-05-24T07:10:38.149Z,12.11
2023-05-24T07:11:38.230Z,12.08
2023-05-24T07:12:38.158Z,12.11
2023-05-24T07:13:38.122Z,12.13
2023-05-24T07:14:38.121Z,12.16
2023-05-24T07:15:38.111Z,12.19
2023-05-24T07:16:38.106Z,12.25
2023-05-24T07:17:38.098Z,12.37
2023-05-24T07:18:38.045Z,12.34
2023-05-24T07:19:38.040Z,12.37
2023-05-24T07:20:38.114Z,12.36
2023-05-24T07:21:38.008Z,12.41
2023-05-24T07:22:38.040Z,12.43
2023-05-24T07:23:37.983Z,12.37
2023-05-24T07:24:37.956Z,12.41
2023-05-24T07:25:37.970Z,12.49
2023-05-24T07:26:37.970Z,12.52
2023-05-24T07:27:37.921Z,12.56
2023-05-24T07:28:37.940Z,12.70
2023-05-24T07:29:37.902Z,12.77
2023-05-24T07:30:37.922Z,12.81
2023-05-24T07:31:37.893Z,12.79
2023-05-24T07:32:38.036Z,12.89
2023-05-24T07:33:37.952Z,13.07
2023-05-24T07:34:37.851Z,13.21
2023-05-24T07:35:37.841Z,13.27
2023-05-24T07:36:37.789Z,13.43
2023-05-24T07:37:37.876Z,13.51
2023-05-24T07:38:37.834Z,13.24
2023-05-24T07:39:37.762Z,12.98
2023-05-24T07:40:37.775Z,12.88
2023-05-24T07:41:37.763Z,12.79
2023-05-24T07:42:37.728Z,12.76
2023-05-24T07:43:37.796Z,12.76
2023-05-24T07:44:37.707Z,12.84
2023-05-24T07:45:37.714Z,12.73
2023-05-24T07:46:37.765Z,12.74
2023-05-24T07:47:37.771Z,12.81
2023-05-24T07:48:37.655Z,12.91
2023-05-24T07:49:37.643Z,12.99
2023-05-24T07:50:37.625Z,13.04
2023-05-24T07:51:37.626Z,13.07
2023-05-24T07:52:37.628Z,13.16
2023-05-24T07:53:37.694Z,13.14
2023-05-24T07:54:37.566Z,12.99
2023-05-24T07:55:37.581Z,13.03
2023-05-24T07:56:37.531Z,13.16
2023-05-24T07:57:37.627Z,13.16
2023-05-24T07:58:37.529Z,13.17
2023-05-24T07:59:37.535Z,13.29
2023-05-24T08:00:37.589Z,13.46
2023-05-24T08:01:37.592Z,13.62
2023-05-24T08:02:37.530Z,13.68
2023-05-24T08:03:37.498Z,13.71
2023-05-24T08:04:37.450Z,13.76
2023-05-24T08:05:37.468Z,13.87
2023-05-24T08:06:37.451Z,13.86
2023-05-24T08:07:37.420Z,13.90
2023-05-24T08:08:37.728Z,13.93
2023-05-24T08:09:37.388Z,14.02
2023-05-24T08:10:37.380Z,14.12
2023-05-24T08:11:37.374Z,14.19
2023-05-24T08:12:37.342Z,14.16
2023-05-24T08:13:37.330Z,13.93
2023-05-24T08:14:37.308Z,13.71
2023-05-24T08:15:37.327Z,13.57
2023-05-24T08:16:37.303Z,13.50
2023-05-24T08:17:37.392Z,13.50
2023-05-24T08:18:37.236Z,13.50
2023-05-24T08:19:37.273Z,13.43
2023-05-24T08:20:37.264Z,13.36
2023-05-24T08:21:37.222Z,13.35
2023-05-24T08:22:37.191Z,13.29
2023-05-24T08:23:37.202Z,13.35
2023-05-24T08:24:37.144Z,13.31
2023-05-24T08:25:37.206Z,13.36
2023-05-24T08:26:37.139Z,13.35
2023-05-24T08:27:37.190Z,13.29
2023-05-24T08:28:37.171Z,13.24
2023-05-24T08:29:37.107Z,13.19
2023-05-24T08:30:37.129Z,13.12
2023-05-24T08:31:37.144Z,12.98
2023-05-24T08:32:37.109Z,12.94
2023-05-24T08:33:37.086Z,12.91
2023-05-24T08:34:37.019Z,12.79
2023-05-24T08:35:37.052Z,12.76
2023-05-24T08:36:37.032Z,12.74
2023-05-24T08:37:37.033Z,12.74
2023-05-24T08:38:36.975Z,12.71
2023-05-24T08:39:36.993Z,12.79
2023-05-24T08:40:36.948Z,12.80
2023-05-24T08:41:36.949Z,12.84
2023-05-24T08:42:36.917Z,12.88
2023-05-24T08:43:36.946Z,12.92
2023-05-24T08:44:36.899Z,12.99
2023-05-24T08:45:36.950Z,12.98
2023-05-24T08:46:36.962Z,12.95
2023-05-24T08:47:36.916Z,12.91
2023-05-24T08:48:36.953Z,12.89
2023-05-24T08:49:36.898Z,12.95
2023-05-24T08:50:36.838Z,13.01
2023-05-24T08:51:36.841Z,13.07
2023-05-24T08:52:36.857Z,13.12
2023-05-24T08:53:36.781Z,13.13
2023-05-24T08:54:36.809Z,13.12
2023-05-24T08:55:36.785Z,13.13
2023-05-24T08:56:36.765Z,13.17
2023-05-24T08:57:36.733Z,13.24
2023-05-24T08:58:36.699Z,13.24
2023-05-24T08:59:36.722Z,13.25
2023-05-24T09:00:36.733Z,13.29
2023-05-24T09:01:36.924Z,13.31
2023-05-24T09:02:36.712Z,13.36
2023-05-24T09:03:36.809Z,13.46
2023-05-24T09:04:36.689Z,13.57
2023-05-24T09:05:36.684Z,13.65
2023-05-24T09:06:36.619Z,13.62
2023-05-24T09:07:36.673Z,13.53
2023-05-24T09:08:36.615Z,13.43
2023-05-24T09:09:36.591Z,13.41
2023-05-24T09:10:49.258Z,13.43
2023-05-24T09:11:39.483Z,13.47
2023-05-24T09:12:38.787Z,13.48
2023-05-24T09:13:36.547Z,13.53
2023-05-24T09:14:36.503Z,13.51
2023-05-24T09:15:36.611Z,13.43
2023-05-24T09:16:36.528Z,13.39
2023-05-24T09:17:36.772Z,13.39
2023-05-24T09:18:36.492Z,13.44
2023-05-24T09:19:36.454Z,13.46
2023-05-24T09:20:36.477Z,13.50
2023-05-24T09:21:36.600Z,13.61
2023-05-24T09:22:39.577Z,13.71
2023-05-24T09:23:36.381Z,13.91
2023-05-24T09:24:36.429Z,14.13
2023-05-24T09:25:36.386Z,14.19
2023-05-24T09:26:36.395Z,14.13
2023-05-24T09:27:36.380Z,14.27
2023-05-24T09:28:36.338Z,14.36
2023-05-24T09:29:36.326Z,14.45
2023-05-24T09:30:36.317Z,14.46
2023-05-24T09:31:36.314Z,14.46
2023-05-24T09:32:36.338Z,14.42
2023-05-24T09:33:36.344Z,14.46
2023-05-24T09:34:36.263Z,14.34
2023-05-24T09:35:36.220Z,14.31
2023-05-24T09:36:36.216Z,14.34
2023-05-24T09:37:36.220Z,14.31
2023-05-24T09:38:36.835Z,14.30
2023-05-24T09:39:36.162Z,14.29
2023-05-24T09:40:36.224Z,14.31
2023-05-24T09:41:36.361Z,14.27
2023-05-24T09:42:36.188Z,14.27
2023-05-24T09:43:36.197Z,14.26
2023-05-24T09:44:36.124Z,14.26
2023-05-24T09:45:36.135Z,14.20
2023-05-24T09:46:36.164Z,14.16
2023-05-24T09:47:36.143Z,14.16
2023-05-24T09:48:36.117Z,14.19
2023-05-24T09:49:36.068Z,14.21
2023-05-24T09:50:36.029Z,14.17
2023-05-24T09:51:36.097Z,14.17
2023-05-24T09:52:36.188Z,14.12
2023-05-24T09:53:36.028Z,14.08
2023-05-24T09:54:36.028Z,14.13
2023-05-24T09:55:35.988Z,14.24
2023-05-24T09:56:36.038Z,14.38
2023-05-24T09:57:35.978Z,14.45
2023-05-24T09:58:35.991Z,14.44
2023-05-24T09:59:35.916Z,14.38
2023-05-24T10:00:35.944Z,14.27
2023-05-24T10:01:35.926Z,14.34
2023-05-24T10:02:45.110Z,14.35
2023-05-24T10:03:36.991Z,14.31
2023-05-24T10:04:35.940Z,14.23
2023-05-24T10:05:35.869Z,14.24
2023-05-24T10:06:35.927Z,14.30
2023-05-24T10:07:35.908Z,14.39
2023-05-24T10:08:35.838Z,14.46
2023-05-24T10:09:35.800Z,14.38
2023-05-24T10:10:35.783Z,14.39
2023-05-24T10:11:35.826Z,14.44
2023-05-24T10:12:35.800Z,14.30
2023-05-24T10:13:35.966Z,14.26
2023-05-24T10:14:35.781Z,14.29
2023-05-24T10:15:35.727Z,14.35
2023-05-24T10:16:35.743Z,14.45
2023-05-24T10:17:35.758Z,14.44
2023-05-24T10:18:35.707Z,14.42
2023-05-24T10:19:35.681Z,14.44
2023-05-24T10:20:35.683Z,14.49
2023-05-24T10:21:35.764Z,14.48
2023-05-24T10:22:35.644Z,14.42
2023-05-24T10:23:35.658Z,14.45
2023-05-24T10:24:35.638Z,14.42
2023-05-24T10:25:35.599Z,14.38
2023-05-24T10:26:35.649Z,14.41
2023-05-24T10:27:35.598Z,14.41
2023-05-24T10:28:35.557Z,14.48
2023-05-24T10:29:35.518Z,14.46
2023-05-24T10:30:35.637Z,14.49
2023-05-24T10:31:35.629Z,14.56
2023-05-24T10:32:35.534Z,14.57
2023-05-24T10:33:35.527Z,14.61
2023-05-24T10:34:35.478Z,14.61
2023-05-24T10:35:35.425Z,14.64
2023-05-24T10:36:35.481Z,14.67
2023-05-24T10:37:35.417Z,14.75
2023-05-24T10:38:35.499Z,14.82
2023-05-24T10:39:35.442Z,14.90
2023-05-24T10:40:35.400Z,14.94
2023-05-24T10:41:35.382Z,14.97
2023-05-24T10:42:35.383Z,15.11
2023-05-24T10:43:35.391Z,15.19
2023-05-24T10:44:35.365Z,15.25
2023-05-24T10:45:35.330Z,15.31
2023-05-24T10:46:35.399Z,15.33
2023-05-24T10:47:36.958Z,15.23
2023-05-24T10:48:35.321Z,15.19
2023-05-24T10:49:35.301Z,15.16
2023-05-24T10:50:35.283Z,15.05
2023-05-24T10:51:35.257Z,14.95
2023-05-24T10:52:35.310Z,14.86
2023-05-24T10:53:35.275Z,14.72
2023-05-24T10:54:35.249Z,14.67
2023-05-24T10:55:35.220Z,14.72
2023-05-24T10:56:35.186Z,14.85
2023-05-24T10:57:35.174Z,14.94
2023-05-24T10:58:35.196Z,15.01
2023-05-24T10:59:35.243Z,15.04
2023-05-24T11:00:36.196Z,15.11
2023-05-24T11:01:35.193Z,15.05
2023-05-24T11:02:35.183Z,14.97
2023-05-24T11:03:35.082Z,14.95
2023-05-24T11:04:35.100Z,15.01
2023-05-24T11:05:35.116Z,14.98
2023-05-24T11:06:35.051Z,15.04
2023-05-24T11:07:35.076Z,15.07
2023-05-24T11:08:35.115Z,15.09
2023-05-24T11:09:35.153Z,15.12
2023-05-24T11:10:35.006Z,15.09
2023-05-24T11:11:34.987Z,15.05
2023-05-24T11:12:35.054Z,15.05
2023-05-24T11:13:34.980Z,15.09
2023-05-24T11:14:34.975Z,15.05
2023-05-24T11:15:34.942Z,15.01
2023-05-24T11:16:34.991Z,15.01
2023-05-24T11:17:34.962Z,14.94
2023-05-24T11:18:34.901Z,14.91
2023-05-24T11:19:34.876Z,14.90
2023-05-24T11:20:34.977Z,14.91
2023-05-24T11:21:34.852Z,14.94
2023-05-24T11:22:34.956Z,14.95
2023-05-24T11:23:37.401Z,14.97
2023-05-24T11:24:34.830Z,15.00
2023-05-24T11:25:34.788Z,14.97
2023-05-24T11:26:34.803Z,15.00
2023-05-24T11:27:34.785Z,15.04
2023-05-24T11:28:34.913Z,15.11
2023-05-24T11:29:36.853Z,15.11
2023-05-24T11:30:34.754Z,15.05
2023-05-24T11:31:36.762Z,15.05
2023-05-24T11:32:34.778Z,15.11
2023-05-24T11:33:34.696Z,15.01
2023-05-24T11:34:34.667Z,15.00
2023-05-24T11:35:34.682Z,14.97
2023-05-24T11:36:34.680Z,14.98
2023-05-24T11:37:45.509Z,14.98
2023-05-24T11:38:35.682Z,14.98
2023-05-24T11:39:34.637Z,14.98
2023-05-24T11:40:34.603Z,14.98
2023-05-24T11:41:34.659Z,14.93
2023-05-24T11:42:34.591Z,14.78
2023-05-24T11:43:34.565Z,14.64
2023-05-24T11:44:34.568Z,14.57
2023-05-24T11:45:34.561Z,14.59
2023-05-24T11:46:34.515Z,14.56
2023-05-24T11:47:34.593Z,14.48
2023-05-24T11:48:35.445Z,14.42
2023-05-24T11:49:34.466Z,14.41
2023-05-24T11:50:42.198Z,14.44
2023-05-24T11:51:35.474Z,14.41
2023-05-24T11:52:34.471Z,14.36
2023-05-24T11:53:34.456Z,14.35
2023-05-24T11:54:34.438Z,14.30
2023-05-24T11:55:34.399Z,14.29
2023-05-24T11:56:34.582Z,14.27
2023-05-24T11:57:34.386Z,14.29
2023-05-24T11:58:34.426Z,14.26
2023-05-24T11:59:34.352Z,14.26
2023-05-24T12:00:34.347Z,14.29
2023-05-24T12:01:34.306Z,14.29
2023-05-24T12:02:34.411Z,14.29
2023-05-24T12:03:34.563Z,14.27
2023-05-24T12:04:34.327Z,14.27
2023-05-24T12:05:34.280Z,14.26
2023-05-24T12:06:35.265Z,14.26
2023-05-24T12:07:34.273Z,14.30
2023-05-24T12:08:34.280Z,14.30
2023-05-24T12:09:34.240Z,14.26
2023-05-24T12:10:34.207Z,14.23
2023-05-24T12:11:34.205Z,14.23
2023-05-24T12:12:42.473Z,14.20
2023-05-24T12:13:35.208Z,14.23
2023-05-24T12:14:34.612Z,14.26
2023-05-24T12:15:34.225Z,14.30
2023-05-24T12:16:34.174Z,14.35
2023-05-24T12:17:34.147Z,14.39
2023-05-24T12:18:34.171Z,14.45
2023-05-24T12:19:34.248Z,14.52
2023-05-24T12:20:34.167Z,14.53
2023-05-24T12:21:34.043Z,14.54
2023-05-24T12:22:34.094Z,14.54
2023-05-24T12:23:34.056Z,14.54
2023-05-24T12:24:34.050Z,14.63
2023-05-24T12:25:34.011Z,14.75
2023-05-24T12:26:34.012Z,14.82
2023-05-24T12:27:34.290Z,14.83
2023-05-24T12:28:33.989Z,14.87
2023-05-24T12:29:33.971Z,14.95
2023-05-24T12:30:33.948Z,15.04
2023-05-24T12:31:33.964Z,15.16
2023-05-24T12:32:33.977Z,15.28
2023-05-24T12:33:33.932Z,15.27
2023-05-24T12:34:33.914Z,15.34
2023-05-24T12:35:33.875Z,15.33
2023-05-24T12:36:33.969Z,15.33
2023-05-24T12:37:33.864Z,15.35
2023-05-24T12:38:33.902Z,15.33
2023-05-24T12:39:33.835Z,15.35
2023-05-24T12:40:33.842Z,15.43
2023-05-24T12:41:33.817Z,15.44
2023-05-24T12:42:33.782Z,15.48
2023-05-24T12:43:33.786Z,15.56
2023-05-24T12:44:33.833Z,15.64
2023-05-24T12:45:33.759Z,15.62
2023-05-24T12:46:33.786Z,15.53
2023-05-24T12:47:33.773Z,15.52
2023-05-24T12:48:33.728Z,15.53
2023-05-24T12:49:33.710Z,15.59
2023-05-24T12:50:33.679Z,15.70
2023-05-24T12:51:33.647Z,15.84
2023-05-24T12:52:33.809Z,15.86
2023-05-24T12:53:33.685Z,15.95
2023-05-24T12:54:33.662Z,15.93
2023-05-24T12:55:33.587Z,15.76
2023-05-24T12:56:33.632Z,15.74
2023-05-24T12:57:33.619Z,15.80
2023-05-24T12:58:33.647Z,15.85
2023-05-24T12:59:33.571Z,15.84
2023-05-24T13:00:33.625Z,15.77
2023-05-24T13:01:33.558Z,15.76